< Cyclone 199306 1993 Season Cyclone 199308 >
Cyclone 199307 (MONTY)
General InformationTrack Information on Google MapsDetailed Wind InformationList of All Images || ResourceGoogle EarthGE AnimationAtom FeedGeoJSON
Detalied Best Track (Time Zone = UTC)
Year Month Day Hour Lat. Long. Pressure (hPa) Wind (kt) Class Image Chart
1993 4 6 00 -10.4 101.0 1006 0 0 Image --
1993 4 7 00 -10.9 102.5 1005 19 2 Image --
1993 4 8 00 -11.4 104.0 1005 19 2 Image --
1993 4 8 18 -12.2 105.3 1004 21 2 Image --
1993 4 8 21 -12.5 105.4 1003 21 2 Image --
1993 4 9 00 -12.8 105.5 1002 23 2 Image --
1993 4 9 03 -13.0 105.7 1001 25 2 Image --
1993 4 9 06 -13.2 105.8 1000 27 2 Image --
1993 4 9 09 -13.4 105.9 999 29 2 Image --
1993 4 9 12 -13.5 105.9 998 29 2 Image --
1993 4 9 15 -13.7 106.0 997 31 2 Image --
1993 4 9 18 -13.9 106.0 995 35 3 Image --
1993 4 9 21 -14.2 106.1 995 35 3 Image --
1993 4 10 00 -14.6 106.2 995 35 3 Image --
1993 4 10 03 -14.9 105.9 992 39 3 Image --
1993 4 10 06 -15.2 105.5 992 39 3 Image --
1993 4 10 09 -15.5 105.5 992 39 3 Image --
1993 4 10 12 -15.8 105.5 995 35 3 Image --
1993 4 10 15 -16.1 105.5 995 35 3 Image --
1993 4 10 18 -16.3 105.6 995 35 3 Image --
1993 4 10 21 -16.6 105.6 995 35 3 Image --
1993 4 11 00 -16.8 105.6 992 39 3 Image --
1993 4 11 03 -17.0 105.6 992 39 3 Image --
1993 4 11 06 -17.1 105.8 995 35 3 Image --
1993 4 11 09 -17.4 106.4 995 35 3 Image --
1993 4 11 12 -17.7 107.0 995 35 3 Image --
1993 4 11 15 -18.0 107.3 995 35 3 Image --
1993 4 11 18 -18.4 107.6 995 35 3 Image --
1993 4 11 21 -18.7 107.9 995 35 3 Image --
1993 4 12 00 -18.9 108.2 995 35 3 Image --
1993 4 12 03 -19.2 108.3 995 35 3 Image --
1993 4 12 06 -19.4 108.6 995 35 3 Image --
1993 4 12 09 -19.3 108.5 997 31 2 Image --
1993 4 12 12 -19.0 108.2 997 31 2 Image --
1993 4 12 15 -18.9 108.2 998 29 2 Image --
1993 4 12 18 -18.9 108.0 998 29 2 Image --
1993 4 12 21 -18.9 107.8 999 29 2 Image --
1993 4 13 00 -19.1 107.6 999 29 2 Image --
1993 4 13 03 -19.2 107.6 1000 27 2 Image --
1993 4 13 06 -19.2 107.6 1002 23 2 Image --
< Cyclone 199306 1993 Season Cyclone 199308 >

Help